sensor_id;sensor_type;location;lat;lon;timestamp;pressure;altitude;pressure_sealevel;temperature;humidity
49723;BME280;43484;43.608;1.458;2023-01-05T00:01:06;101160.03;;;7.56;100.00
49723;BME280;43484;43.608;1.458;2023-01-05T00:03:34;101145.91;;;7.61;100.00
49723;BME280;43484;43.608;1.458;2023-01-05T00:06:09;101143.53;;;7.64;100.00
49723;BME280;43484;43.608;1.458;2023-01-05T00:08:36;101140.31;;;7.67;100.00
49723;BME280;43484;43.608;1.458;2023-01-05T00:11:07;101145.03;;;7.60;100.00
49723;BME280;43484;43.608;1.458;2023-01-05T00:13:54;101144.34;;;7.63;100.00
49723;BME280;43484;43.608;1.458;2023-01-05T00:16:39;101143.94;;;7.70;100.00
49723;BME280;43484;43.608;1.458;2023-01-05T00:19:24;101144.13;;;7.73;100.00
49723;BME280;43484;43.608;1.458;2023-01-05T00:22:24;101145.00;;;7.74;100.00
49723;BME280;43484;43.608;1.458;2023-01-05T00:25:19;101151.06;;;7.76;100.00
49723;BME280;43484;43.608;1.458;2023-01-05T00:27:46;101148.81;;;7.80;100.00
49723;BME280;43484;43.608;1.458;2023-01-05T00:30:15;101149.59;;;7.79;100.00
49723;BME280;43484;43.608;1.458;2023-01-05T00:32:42;101158.81;;;7.77;100.00
49723;BME280;43484;43.608;1.458;2023-01-05T00:35:10;101154.69;;;7.79;100.00
49723;BME280;43484;43.608;1.458;2023-01-05T00:37:37;101154.78;;;7.81;100.00
49723;BME280;43484;43.608;1.458;2023-01-05T00:40:10;101160.19;;;7.85;100.00
49723;BME280;43484;43.608;1.458;2023-01-05T00:42:37;101162.16;;;7.76;100.00
49723;BME280;43484;43.608;1.458;2023-01-05T00:45:06;101175.13;;;7.66;100.00
49723;BME280;43484;43.608;1.458;2023-01-05T00:47:33;101176.88;;;7.67;100.00
49723;BME280;43484;43.608;1.458;2023-01-05T00:50:00;101188.09;;;7.56;100.00
49723;BME280;43484;43.608;1.458;2023-01-05T00:52:27;101200.75;;;7.54;100.00
49723;BME280;43484;43.608;1.458;2023-01-05T00:54:53;101204.19;;;7.55;100.00
49723;BME280;43484;43.608;1.458;2023-01-05T00:57:20;101217.97;;;7.58;100.00
49723;BME280;43484;43.608;1.458;2023-01-05T00:59:46;101242.91;;;7.62;100.00
49723;BME280;43484;43.608;1.458;2023-01-05T01:02:13;101254.97;;;7.65;100.00
49723;BME280;43484;43.608;1.458;2023-01-05T01:04:40;101269.19;;;7.61;100.00
49723;BME280;43484;43.608;1.458;2023-01-05T01:07:07;101282.03;;;7.63;100.00
49723;BME280;43484;43.608;1.458;2023-01-05T01:09:34;101288.63;;;7.59;100.00
49723;BME280;43484;43.608;1.458;2023-01-05T01:12:01;101304.81;;;7.60;100.00
49723;BME280;43484;43.608;1.458;2023-01-05T01:14:27;101313.72;;;7.67;100.00
49723;BME280;43484;43.608;1.458;2023-01-05T01:16:54;101317.94;;;7.66;100.00
49723;BME280;43484;43.608;1.458;2023-01-05T01:19:23;101331.59;;;7.67;100.00
49723;BME280;43484;43.608;1.458;2023-01-05T01:21:50;101336.78;;;7.68;100.00
49723;BME280;43484;43.608;1.458;2023-01-05T01:24:23;101335.78;;;7.66;100.00
49723;BME280;43484;43.608;1.458;2023-01-05T01:26:51;101339.91;;;7.64;100.00
49723;BME280;43484;43.608;1.458;2023-01-05T01:29:18;101350.00;;;7.62;100.00
49723;BME280;43484;43.608;1.458;2023-01-05T01:31:50;101339.53;;;7.71;100.00
49723;BME280;43484;43.608;1.458;2023-01-05T01:34:16;101332.75;;;7.72;100.00
49723;BME280;43484;43.608;1.458;2023-01-05T01:36:43;101348.16;;;7.60;100.00
49723;BME280;43484;43.608;1.458;2023-01-05T01:39:11;101335.88;;;7.68;100.00
49723;BME280;43484;43.608;1.458;2023-01-05T01:41:38;101334.81;;;7.64;100.00
49723;BME280;43484;43.608;1.458;2023-01-05T01:47:14;101321.66;;;7.71;100.00
49723;BME280;43484;43.608;1.458;2023-01-05T01:49:43;101320.41;;;7.51;100.00
49723;BME280;43484;43.608;1.458;2023-01-05T01:52:10;101310.38;;;7.54;100.00
49723;BME280;43484;43.608;1.458;2023-01-05T01:54:37;101295.88;;;7.67;100.00
49723;BME280;43484;43.608;1.458;2023-01-05T01:57:04;101292.44;;;7.66;100.00
49723;BME280;43484;43.608;1.458;2023-01-05T01:59:31;101285.97;;;7.71;100.00
49723;BME280;43484;43.608;1.458;2023-01-05T02:01:59;101281.84;;;7.73;100.00
49723;BME280;43484;43.608;1.458;2023-01-05T02:04:29;101281.03;;;7.74;100.00
49723;BME280;43484;43.608;1.458;2023-01-05T02:06:58;101282.13;;;7.78;100.00
49723;BME280;43484;43.608;1.458;2023-01-05T02:09:25;101290.66;;;7.78;100.00
49723;BME280;43484;43.608;1.458;2023-01-05T02:25:52;101302.06;;;7.83;100.00
49723;BME280;43484;43.608;1.458;2023-01-05T02:29:31;101303.81;;;7.84;100.00
49723;BME280;43484;43.608;1.458;2023-01-05T02:32:11;101311.44;;;7.84;100.00
49723;BME280;43484;43.608;1.458;2023-01-05T02:37:31;101305.78;;;7.88;100.00
49723;BME280;43484;43.608;1.458;2023-01-05T02:40:15;101310.38;;;7.94;100.00
49723;BME280;43484;43.608;1.458;2023-01-05T02:42:48;101315.00;;;7.86;100.00
49723;BME280;43484;43.608;1.458;2023-01-05T02:45:16;101312.72;;;7.91;100.00
49723;BME280;43484;43.608;1.458;2023-01-05T02:47:44;101318.63;;;7.90;100.00
49723;BME280;43484;43.608;1.458;2023-01-05T02:50:15;101331.19;;;7.74;100.00
49723;BME280;43484;43.608;1.458;2023-01-05T02:52:56;101337.47;;;7.79;100.00
49723;BME280;43484;43.608;1.458;2023-01-05T02:55:43;101330.09;;;7.83;100.00
49723;BME280;43484;43.608;1.458;2023-01-05T02:58:33;101329.41;;;7.86;100.00
49723;BME280;43484;43.608;1.458;2023-01-05T03:01:06;101327.28;;;7.79;100.00
49723;BME280;43484;43.608;1.458;2023-01-05T03:03:45;101326.75;;;7.84;100.00
49723;BME280;43484;43.608;1.458;2023-01-05T03:06:16;101329.50;;;8.00;100.00
49723;BME280;43484;43.608;1.458;2023-01-05T03:08:54;101331.28;;;8.01;100.00
49723;BME280;43484;43.608;1.458;2023-01-05T03:11:26;101333.84;;;7.88;100.00
49723;BME280;43484;43.608;1.458;2023-01-05T03:14:27;101320.59;;;7.94;100.00
49723;BME280;43484;43.608;1.458;2023-01-05T03:16:57;101325.69;;;7.94;100.00
49723;BME280;43484;43.608;1.458;2023-01-05T03:19:27;101333.66;;;7.85;100.00
49723;BME280;43484;43.608;1.458;2023-01-05T03:22:29;101331.88;;;7.84;100.00
49723;BME280;43484;43.608;1.458;2023-01-05T03:25:17;101320.59;;;7.94;100.00
49723;BME280;43484;43.608;1.458;2023-01-05T03:28:05;101319.69;;;7.93;100.00
49723;BME280;43484;43.608;1.458;2023-01-05T03:31:03;101314.69;;;7.95;100.00
49723;BME280;43484;43.608;1.458;2023-01-05T03:34:47;101312.31;;;7.98;100.00
49723;BME280;43484;43.608;1.458;2023-01-05T03:40:44;101302.13;;;7.98;100.00
49723;BME280;43484;43.608;1.458;2023-01-05T03:43:12;101303.19;;;8.01;100.00
49723;BME280;43484;43.608;1.458;2023-01-05T03:45:44;101299.09;;;8.03;100.00
49723;BME280;43484;43.608;1.458;2023-01-05T03:48:11;101299.34;;;8.08;100.00
49723;BME280;43484;43.608;1.458;2023-01-05T03:50:38;101304.19;;;8.03;100.00
49723;BME280;43484;43.608;1.458;2023-01-05T03:53:05;101304.84;;;8.01;100.00
49723;BME280;43484;43.608;1.458;2023-01-05T03:55:33;101308.22;;;8.00;100.00
49723;BME280;43484;43.608;1.458;2023-01-05T03:57:59;101300.66;;;8.01;100.00
49723;BME280;43484;43.608;1.458;2023-01-05T04:00:26;101306.66;;;8.02;100.00
49723;BME280;43484;43.608;1.458;2023-01-05T04:02:52;101316.84;;;8.02;100.00
49723;BME280;43484;43.608;1.458;2023-01-05T04:05:19;101310.94;;;8.03;100.00
49723;BME280;43484;43.608;1.458;2023-01-05T04:07:46;101306.56;;;8.00;100.00
49723;BME280;43484;43.608;1.458;2023-01-05T04:10:13;101309.28;;;8.03;100.00
49723;BME280;43484;43.608;1.458;2023-01-05T04:12:40;101308.69;;;7.94;100.00
49723;BME280;43484;43.608;1.458;2023-01-05T04:15:07;101314.47;;;8.05;100.00
49723;BME280;43484;43.608;1.458;2023-01-05T04:17:34;101309.09;;;8.00;100.00
49723;BME280;43484;43.608;1.458;2023-01-05T04:20:00;101316.84;;;8.02;100.00
49723;BME280;43484;43.608;1.458;2023-01-05T04:22:27;101310.06;;;8.02;100.00
49723;BME280;43484;43.608;1.458;2023-01-05T04:24:53;101312.03;;;8.06;100.00
49723;BME280;43484;43.608;1.458;2023-01-05T04:27:20;101305.06;;;8.04;100.00
49723;BME280;43484;43.608;1.458;2023-01-05T04:29:47;101316.16;;;7.91;100.00
49723;BME280;43484;43.608;1.458;2023-01-05T04:32:14;101319.50;;;7.90;100.00
49723;BME280;43484;43.608;1.458;2023-01-05T04:34:40;101312.50;;;8.01;100.00
49723;BME280;43484;43.608;1.458;2023-01-05T04:37:07;101302.53;;;8.04;100.00
49723;BME280;43484;43.608;1.458;2023-01-05T04:39:33;101307.81;;;8.07;100.00
49723;BME280;43484;43.608;1.458;2023-01-05T04:42:00;101312.81;;;7.92;100.00
49723;BME280;43484;43.608;1.458;2023-01-05T04:44:27;101308.69;;;7.94;100.00
49723;BME280;43484;43.608;1.458;2023-01-05T04:46:53;101310.84;;;8.01;100.00
49723;BME280;43484;43.608;1.458;2023-01-05T04:49:20;101309.00;;;7.99;100.00
49723;BME280;43484;43.608;1.458;2023-01-05T04:51:46;101310.28;;;8.05;100.00
49723;BME280;43484;43.608;1.458;2023-01-05T04:54:13;101312.50;;;8.01;100.00
49723;BME280;43484;43.608;1.458;2023-01-05T04:56:39;101311.03;;;8.04;100.00
49723;BME280;43484;43.608;1.458;2023-01-05T04:59:06;101314.47;;;8.05;100.00
49723;BME280;43484;43.608;1.458;2023-01-05T05:01:32;101312.22;;;7.96;100.00
49723;BME280;43484;43.608;1.458;2023-01-05T05:03:59;101318.72;;;7.91;100.00
49723;BME280;43484;43.608;1.458;2023-01-05T05:06:26;101311.75;;;8.02;100.00
49723;BME280;43484;43.608;1.458;2023-01-05T05:08:52;101310.84;;;8.01;100.00
49723;BME280;43484;43.608;1.458;2023-01-05T05:11:19;101310.75;;;8.00;100.00
49723;BME280;43484;43.608;1.458;2023-01-05T05:13:46;101307.72;;;8.05;100.00
49723;BME280;43484;43.608;1.458;2023-01-05T05:16:13;101305.94;;;8.04;100.00
49723;BME280;43484;43.608;1.458;2023-01-05T05:18:39;101307.22;;;7.98;100.00
49723;BME280;43484;43.608;1.458;2023-01-05T05:21:06;101313.69;;;8.06;100.00
49723;BME280;43484;43.608;1.458;2023-01-05T05:23:33;101308.56;;;8.06;100.00
49723;BME280;43484;43.608;1.458;2023-01-05T05:25:59;101309.28;;;8.03;100.00
49723;BME280;43484;43.608;1.458;2023-01-05T05:28:26;101309.47;;;8.06;100.00
49723;BME280;43484;43.608;1.458;2023-01-05T05:30:56;101310.47;;;8.08;100.00
49723;BME280;43484;43.608;1.458;2023-01-05T05:33:23;101308.66;;;8.07;100.00
49723;BME280;43484;43.608;1.458;2023-01-05T05:35:50;101307.09;;;8.09;100.00
49723;BME280;43484;43.608;1.458;2023-01-05T05:38:16;101295.69;;;8.17;100.00
49723;BME280;43484;43.608;1.458;2023-01-05T05:40:43;101300.03;;;8.18;100.00
49723;BME280;43484;43.608;1.458;2023-01-05T05:43:09;101300.63;;;8.14;100.00
49723;BME280;43484;43.608;1.458;2023-01-05T05:45:36;101297.22;;;8.14;100.00
49723;BME280;43484;43.608;1.458;2023-01-05T05:48:03;101301.22;;;8.10;100.00
49723;BME280;43484;43.608;1.458;2023-01-05T05:50:31;101308.09;;;8.11;100.00
49723;BME280;43484;43.608;1.458;2023-01-05T05:52:58;101303.69;;;8.09;100.00
49723;BME280;43484;43.608;1.458;2023-01-05T05:55:25;101296.03;;;8.09;100.00
49723;BME280;43484;43.608;1.458;2023-01-05T05:57:51;101295.16;;;8.08;100.00
49723;BME280;43484;43.608;1.458;2023-01-05T06:00:18;101303.00;;;8.11;100.00
49723;BME280;43484;43.608;1.458;2023-01-05T06:02:45;101301.44;;;8.00;100.00
49723;BME280;43484;43.608;1.458;2023-01-05T06:05:12;101297.78;;;8.10;100.00
49723;BME280;43484;43.608;1.458;2023-01-05T06:07:38;101302.41;;;8.15;100.00
49723;BME280;43484;43.608;1.458;2023-01-05T06:10:05;101298.06;;;8.14;100.00
49723;BME280;43484;43.608;1.458;2023-01-05T06:12:32;101297.75;;;8.23;100.00
49723;BME280;43484;43.608;1.458;2023-01-05T06:14:59;101293.25;;;8.19;100.00
49723;BME280;43484;43.608;1.458;2023-01-05T06:17:25;101293.13;;;8.17;100.00
49723;BME280;43484;43.608;1.458;2023-01-05T06:19:52;101302.41;;;8.15;100.00
49723;BME280;43484;43.608;1.458;2023-01-05T06:22:18;101301.00;;;8.20;100.00
49723;BME280;43484;43.608;1.458;2023-01-05T06:24:45;101293.13;;;8.17;100.00
49723;BME280;43484;43.608;1.458;2023-01-05T06:27:12;101300.94;;;8.19;100.00
49723;BME280;43484;43.608;1.458;2023-01-05T06:29:38;101296.22;;;8.25;100.00
49723;BME280;43484;43.608;1.458;2023-01-05T06:32:05;101303.28;;;8.29;100.00
49723;BME280;43484;43.608;1.458;2023-01-05T06:34:32;101292.56;;;8.21;100.00
49723;BME280;43484;43.608;1.458;2023-01-05T06:36:58;101289.19;;;8.22;100.00
49723;BME280;43484;43.608;1.458;2023-01-05T06:39:27;101290.81;;;8.20;100.00
49723;BME280;43484;43.608;1.458;2023-01-05T06:41:54;101302.13;;;8.24;100.00
49723;BME280;43484;43.608;1.458;2023-01-05T06:44:21;101293.06;;;8.29;100.00
49723;BME280;43484;43.608;1.458;2023-01-05T06:46:47;101287.94;;;8.16;100.00
49723;BME280;43484;43.608;1.458;2023-01-05T06:49:14;101298.88;;;8.13;100.00
49723;BME280;43484;43.608;1.458;2023-01-05T06:51:41;101293.84;;;8.15;100.00
49723;BME280;43484;43.608;1.458;2023-01-05T06:54:07;101287.09;;;8.15;100.00
49723;BME280;43484;43.608;1.458;2023-01-05T06:56:34;101293.06;;;8.29;100.00
49723;BME280;43484;43.608;1.458;2023-01-05T06:59:01;101292.69;;;8.10;100.00
49723;BME280;43484;43.608;1.458;2023-01-05T07:01:27;101288.94;;;8.18;100.00
49723;BME280;43484;43.608;1.458;2023-01-05T07:03:54;101291.56;;;8.19;100.00
49723;BME280;43484;43.608;1.458;2023-01-05T07:06:21;101298.69;;;8.23;100.00
49723;BME280;43484;43.608;1.458;2023-01-05T07:08:47;101298.28;;;8.30;100.00
49723;BME280;43484;43.608;1.458;2023-01-05T07:11:14;101300.38;;;8.37;100.00
49723;BME280;43484;43.608;1.458;2023-01-05T07:13:41;101294.91;;;8.31;100.00
49723;BME280;43484;43.608;1.458;2023-01-05T07:16:07;101300.75;;;8.29;100.00
49723;BME280;43484;43.608;1.458;2023-01-05T07:18:34;101288.75;;;8.28;100.00
49723;BME280;43484;43.608;1.458;2023-01-05T07:21:00;101293.84;;;8.28;100.00
49723;BME280;43484;43.608;1.458;2023-01-05T07:23:30;101297.47;;;8.31;100.00
49723;BME280;43484;43.608;1.458;2023-01-05T07:26:00;101294.25;;;8.34;100.00
49723;BME280;43484;43.608;1.458;2023-01-05T07:28:27;101296.59;;;8.31;100.00
49723;BME280;43484;43.608;1.458;2023-01-05T07:30:54;101291.56;;;8.32;100.00
49723;BME280;43484;43.608;1.458;2023-01-05T07:33:20;101295.28;;;8.37;100.00
49723;BME280;43484;43.608;1.458;2023-01-05T07:35:47;101290.00;;;8.34;100.00
49723;BME280;43484;43.608;1.458;2023-01-05T07:38:13;101286.84;;;8.38;100.00
49723;BME280;43484;43.608;1.458;2023-01-05T07:40:40;101293.63;;;8.38;100.00
49723;BME280;43484;43.608;1.458;2023-01-05T07:43:07;101290.19;;;8.37;100.00
49723;BME280;43484;43.608;1.458;2023-01-05T07:45:33;101289.41;;;8.38;100.00
49723;BME280;43484;43.608;1.458;2023-01-05T07:48:01;101293.88;;;8.42;100.00
49723;BME280;43484;43.608;1.458;2023-01-05T07:50:28;101290.56;;;8.43;100.00
49723;BME280;43484;43.608;1.458;2023-01-05T07:52:57;101290.75;;;8.46;100.00
49723;BME280;43484;43.608;1.458;2023-01-05T07:55:24;101289.25;;;8.50;100.00
49723;BME280;43484;43.608;1.458;2023-01-05T07:57:50;101291.91;;;8.51;100.00
49723;BME280;43484;43.608;1.458;2023-01-05T08:00:17;101286.88;;;8.53;100.00
49723;BME280;43484;43.608;1.458;2023-01-05T08:02:44;101297.09;;;8.53;100.00
49723;BME280;43484;43.608;1.458;2023-01-05T08:05:11;101291.41;;;8.57;100.00
49723;BME280;43484;43.608;1.458;2023-01-05T08:07:38;101293.97;;;8.57;100.00
49723;BME280;43484;43.608;1.458;2023-01-05T08:10:05;101297.28;;;8.56;100.00
49723;BME280;43484;43.608;1.458;2023-01-05T08:12:50;101290.69;;;8.87;100.00
49723;BME280;43484;43.608;1.458;2023-01-05T08:15:36;101286.78;;;8.79;100.00
49723;BME280;43484;43.608;1.458;2023-01-05T08:18:02;101292.69;;;8.78;100.00
49723;BME280;43484;43.608;1.458;2023-01-05T08:20:29;101284.31;;;8.80;100.00
49723;BME280;43484;43.608;1.458;2023-01-05T08:22:56;101297.34;;;8.70;100.00
49723;BME280;43484;43.608;1.458;2023-01-05T08:25:23;101291.91;;;8.79;100.00
49723;BME280;43484;43.608;1.458;2023-01-05T08:27:50;101291.28;;;8.83;100.00
49723;BME280;43484;43.608;1.458;2023-01-05T08:30:16;101301.06;;;8.90;100.00
49723;BME280;43484;43.608;1.458;2023-01-05T08:32:43;101285.81;;;8.92;100.00
49723;BME280;43484;43.608;1.458;2023-01-05T08:35:10;101292.88;;;8.96;100.00
49723;BME280;43484;43.608;1.458;2023-01-05T08:37:36;101298.09;;;8.97;100.00
49723;BME280;43484;43.608;1.458;2023-01-05T08:40:03;101292.97;;;8.97;100.00
49723;BME280;43484;43.608;1.458;2023-01-05T08:42:30;101293.75;;;8.96;100.00
49723;BME280;43484;43.608;1.458;2023-01-05T08:44:57;101299.16;;;9.01;100.00
49723;BME280;43484;43.608;1.458;2023-01-05T08:47:24;101311.13;;;9.02;100.00
49723;BME280;43484;43.608;1.458;2023-01-05T08:49:54;101303.72;;;9.06;100.00
49723;BME280;43484;43.608;1.458;2023-01-05T08:52:20;101304.44;;;9.04;100.00
49723;BME280;43484;43.608;1.458;2023-01-05T08:54:49;101315.31;;;9.14;100.00
49723;BME280;43484;43.608;1.458;2023-01-05T08:57:15;101310.53;;;9.20;100.00
49723;BME280;43484;43.608;1.458;2023-01-05T08:59:42;101305.25;;;9.32;100.00
49723;BME280;43484;43.608;1.458;2023-01-05T09:02:10;101305.41;;;9.35;100.00
49723;BME280;43484;43.608;1.458;2023-01-05T09:04:37;101303.28;;;9.28;100.00
49723;BME280;43484;43.608;1.458;2023-01-05T09:07:04;101298.19;;;9.42;100.00
49723;BME280;43484;43.608;1.458;2023-01-05T09:09:30;101306.72;;;9.43;100.00
49723;BME280;43484;43.608;1.458;2023-01-05T09:11:57;101300.66;;;9.41;100.00
49723;BME280;43484;43.608;1.458;2023-01-05T09:14:24;101303.72;;;9.50;100.00
49723;BME280;43484;43.608;1.458;2023-01-05T09:16:50;101302.75;;;9.62;100.00
49723;BME280;43484;43.608;1.458;2023-01-05T09:19:34;101307.44;;;9.69;100.00
49723;BME280;43484;43.608;1.458;2023-01-05T09:22:01;101314.63;;;9.76;100.00
49723;BME280;43484;43.608;1.458;2023-01-05T09:24:28;101316.25;;;9.74;100.00
49723;BME280;43484;43.608;1.458;2023-01-05T09:26:55;101306.19;;;9.77;100.00
49723;BME280;43484;43.608;1.458;2023-01-05T09:29:22;101317.38;;;9.79;100.00
49723;BME280;43484;43.608;1.458;2023-01-05T09:31:48;101320.59;;;9.91;100.00
49723;BME280;43484;43.608;1.458;2023-01-05T09:34:15;101317.19;;;9.91;100.00
49723;BME280;43484;43.608;1.458;2023-01-05T09:36:44;101322.09;;;9.88;100.00
49723;BME280;43484;43.608;1.458;2023-01-05T09:39:11;101307.63;;;9.88;100.00
49723;BME280;43484;43.608;1.458;2023-01-05T09:41:44;101321.69;;;9.80;100.00
49723;BME280;43484;43.608;1.458;2023-01-05T09:46:49;101310.47;;;9.78;100.00
49723;BME280;43484;43.608;1.458;2023-01-05T09:49:20;101311.81;;;9.72;100.00
49723;BME280;43484;43.608;1.458;2023-01-05T09:51:51;101316.25;;;9.74;100.00
49723;BME280;43484;43.608;1.458;2023-01-05T09:54:21;101319.22;;;9.82;100.00
49723;BME280;43484;43.608;1.458;2023-01-05T09:56:50;101318.25;;;9.80;100.00
49723;BME280;43484;43.608;1.458;2023-01-05T09:59:42;101317.53;;;9.82;100.00
49723;BME280;43484;43.608;1.458;2023-01-05T10:02:30;101316.63;;;9.96;100.00
49723;BME280;43484;43.608;1.458;2023-01-05T10:05:00;101311.41;;;9.95;100.00
49723;BME280;43484;43.608;1.458;2023-01-05T10:07:37;101310.16;;;10.03;100.00
49723;BME280;43484;43.608;1.458;2023-01-05T10:11:00;101309.44;;;10.05;100.00
49723;BME280;43484;43.608;1.458;2023-01-05T10:13:00;101301.75;;;10.20;100.00
49723;BME280;43484;43.608;1.458;2023-01-05T10:15:53;101300.56;;;10.30;100.00
49723;BME280;43484;43.608;1.458;2023-01-05T10:18:22;101298.56;;;10.40;100.00
49723;BME280;43484;43.608;1.458;2023-01-05T10:21:42;101302.75;;;10.54;100.00
49723;BME280;43484;43.608;1.458;2023-01-05T10:24:26;101298.59;;;10.56;100.00
49723;BME280;43484;43.608;1.458;2023-01-05T10:27:07;101298.91;;;10.62;100.00
49723;BME280;43484;43.608;1.458;2023-01-05T10:30:12;101306.28;;;10.56;100.00
49723;BME280;43484;43.608;1.458;2023-01-05T10:33:00;101296.81;;;10.55;100.00
49723;BME280;43484;43.608;1.458;2023-01-05T10:41:27;101287.44;;;10.56;100.00
49723;BME280;43484;43.608;1.458;2023-01-05T10:46:50;101270.63;;;10.61;100.00
49723;BME280;43484;43.608;1.458;2023-01-05T10:49:23;101270.16;;;10.68;100.00
49723;BME280;43484;43.608;1.458;2023-01-05T10:51:51;101263.09;;;10.64;100.00
49723;BME280;43484;43.608;1.458;2023-01-05T10:54:35;101262.91;;;10.77;100.00
49723;BME280;43484;43.608;1.458;2023-01-05T10:57:37;101256.44;;;10.83;100.00
49723;BME280;43484;43.608;1.458;2023-01-05T11:02:59;101252.81;;;10.96;100.00
49723;BME280;43484;43.608;1.458;2023-01-05T11:05:31;101244.50;;;10.84;100.00
49723;BME280;43484;43.608;1.458;2023-01-05T11:08:04;101240.09;;;10.81;100.00
49723;BME280;43484;43.608;1.458;2023-01-05T11:10:40;101236.28;;;10.57;100.00
49723;BME280;43484;43.608;1.458;2023-01-05T11:15:59;101227.63;;;10.55;100.00
49723;BME280;43484;43.608;1.458;2023-01-05T11:18:35;101221.47;;;10.52;100.00
49723;BME280;43484;43.608;1.458;2023-01-05T11:21:21;101218.44;;;10.59;100.00
49723;BME280;43484;43.608;1.458;2023-01-05T11:23:51;101216.28;;;10.66;100.00
49723;BME280;43484;43.608;1.458;2023-01-05T11:34:35;101185.88;;;11.07;100.00
49723;BME280;43484;43.608;1.458;2023-01-05T11:37:05;101184.41;;;11.12;100.00
49723;BME280;43484;43.608;1.458;2023-01-05T11:42:33;101168.72;;;11.24;100.00
49723;BME280;43484;43.608;1.458;2023-01-05T11:52:45;101159.69;;;11.50;100.00
49723;BME280;43484;43.608;1.458;2023-01-05T11:57:46;101149.94;;;11.60;100.00
49723;BME280;43484;43.608;1.458;2023-01-05T12:00:34;101143.09;;;11.78;100.00
49723;BME280;43484;43.608;1.458;2023-01-05T12:06:25;101133.84;;;11.82;100.00
49723;BME280;43484;43.608;1.458;2023-01-05T12:11:52;101126.75;;;11.95;100.00
49723;BME280;43484;43.608;1.458;2023-01-05T12:14:46;101120.53;;;11.90;100.00
49723;BME280;43484;43.608;1.458;2023-01-05T12:17:37;101115.19;;;12.05;100.00
49723;BME280;43484;43.608;1.458;2023-01-05T12:25:57;101099.53;;;12.38;100.00
49723;BME280;43484;43.608;1.458;2023-01-05T12:31:24;101096.63;;;12.31;100.00
49723;BME280;43484;43.608;1.458;2023-01-05T12:37:32;101094.47;;;12.40;100.00
49723;BME280;43484;43.608;1.458;2023-01-05T12:40:12;101089.41;;;12.62;100.00
49723;BME280;43484;43.608;1.458;2023-01-05T12:43:00;101084.63;;;12.50;100.00
49723;BME280;43484;43.608;1.458;2023-01-05T12:48:16;101072.41;;;12.66;100.00
49723;BME280;43484;43.608;1.458;2023-01-05T12:50:48;101073.41;;;12.69;100.00
49723;BME280;43484;43.608;1.458;2023-01-05T13:01:45;101053.22;;;12.37;100.00
49723;BME280;43484;43.608;1.458;2023-01-05T13:04:27;101049.75;;;12.36;100.00
49723;BME280;43484;43.608;1.458;2023-01-05T13:07:14;101041.06;;;12.33;100.00
49723;BME280;43484;43.608;1.458;2023-01-05T13:09:46;101044.00;;;12.42;100.00
49723;BME280;43484;43.608;1.458;2023-01-05T13:12:17;101045.56;;;12.38;100.00
49723;BME280;43484;43.608;1.458;2023-01-05T13:15:17;101045.75;;;12.43;100.00
49723;BME280;43484;43.608;1.458;2023-01-05T13:17:52;101034.09;;;12.30;100.00
49723;BME280;43484;43.608;1.458;2023-01-05T13:20:39;101034.78;;;12.47;100.00
49723;BME280;43484;43.608;1.458;2023-01-05T13:23:18;101026.75;;;12.60;100.00
49723;BME280;43484;43.608;1.458;2023-01-05T13:25:55;101027.75;;;12.63;100.00
49723;BME280;43484;43.608;1.458;2023-01-05T13:28:24;101026.88;;;12.63;100.00
49723;BME280;43484;43.608;1.458;2023-01-05T13:34:12;101018.72;;;12.73;100.00
49723;BME280;43484;43.608;1.458;2023-01-05T13:37:18;101025.06;;;12.60;100.00
49723;BME280;43484;43.608;1.458;2023-01-05T13:39:55;101023.50;;;12.43;100.00
49723;BME280;43484;43.608;1.458;2023-01-05T13:42:56;101012.84;;;12.34;100.00
49723;BME280;43484;43.608;1.458;2023-01-05T13:53:38;101004.19;;;12.53;100.00
49723;BME280;43484;43.608;1.458;2023-01-05T13:56:19;101007.19;;;12.63;100.00
49723;BME280;43484;43.608;1.458;2023-01-05T13:58:50;100999.09;;;12.54;100.00
49723;BME280;43484;43.608;1.458;2023-01-05T14:01:49;101004.25;;;12.54;100.00
49723;BME280;43484;43.608;1.458;2023-01-05T14:04:21;100996.25;;;12.47;100.00
49723;BME280;43484;43.608;1.458;2023-01-05T14:06:51;101002.19;;;12.46;100.00
49723;BME280;43484;43.608;1.458;2023-01-05T14:09:33;100997.03;;;12.46;100.00
49723;BME280;43484;43.608;1.458;2023-01-05T14:15:00;100997.59;;;12.59;100.00
49723;BME280;43484;43.608;1.458;2023-01-05T14:22:57;100979.50;;;12.56;100.00
49723;BME280;43484;43.608;1.458;2023-01-05T14:25:44;100978.47;;;12.74;100.00
49723;BME280;43484;43.608;1.458;2023-01-05T14:34:13;100979.81;;;12.43;100.00
49723;BME280;43484;43.608;1.458;2023-01-05T14:39:27;100970.34;;;12.42;100.00
49723;BME280;43484;43.608;1.458;2023-01-05T14:44:40;100972.22;;;12.46;100.00
49723;BME280;43484;43.608;1.458;2023-01-05T14:47:09;100963.56;;;12.44;100.00
49723;BME280;43484;43.608;1.458;2023-01-05T14:49:52;100968.53;;;12.40;100.00
49723;BME280;43484;43.608;1.458;2023-01-05T14:52:51;100965.16;;;12.41;100.00
49723;BME280;43484;43.608;1.458;2023-01-05T15:03:32;100962.03;;;12.27;100.00
49723;BME280;43484;43.608;1.458;2023-01-05T15:06:09;100962.22;;;12.32;100.00
49723;BME280;43484;43.608;1.458;2023-01-05T15:09:07;100959.84;;;12.36;100.00
49723;BME280;43484;43.608;1.458;2023-01-05T15:20:09;100951.34;;;12.17;100.00
49723;BME280;43484;43.608;1.458;2023-01-05T15:31:27;100950.28;;;12.12;100.00
49723;BME280;43484;43.608;1.458;2023-01-05T15:39:26;100946.53;;;12.26;100.00
49723;BME280;43484;43.608;1.458;2023-01-05T15:41:55;100938.59;;;12.20;100.00
49723;BME280;43484;43.608;1.458;2023-01-05T15:44:26;100936.28;;;12.26;100.00
49723;BME280;43484;43.608;1.458;2023-01-05T15:46:55;100937.84;;;12.22;100.00